• Join FlightAware (Why Join?)
  • Login
  • US Flag 
07:53PM EST


 

Airport Tracker/Info


-or-


 

Live Flight TrackerFlight Track Log ✈ N115YP ✈ 16-Jun-2013 ✈ KLXN - W78

Flight Track Log - Related Links

Times and Time Zones

All times are in EDT time to prevent confusion due to time zone crossing. See the N115YP flight status page for this flight to view local times or setup timezone preferences in your user account.

Time Position Orientation Groundspeed Altitude Reporting Facility
EDT Latitude Longitude Course Direction KTS MPH feet Rate Location/Type
01:39PM 40.8019 -99.5347 92° East 192 221 7,000  Level Denver Center
01:40PM 40.8000 -99.4592 92° East 202 232 8,100 1,020 Climbing Denver Center
01:41PM 40.7975 -99.3828 92° East 204 235 9,300 1,140 Climbing Minneapolis Center
01:42PM 40.7969 -99.3056 91° East 209 241 10,500 1,080 Climbing Denver Center
01:43PM 40.7942 -99.2272 93° East 213 245 11,500 960 Climbing Denver Center
01:44PM 40.7869 -99.1286 95° East 223 257 12,600 900 Climbing Denver Center
01:45PM 40.7858 -99.1122 95° East 219 252 12,700 720 Climbing Minneapolis Center
01:46PM 40.7792 -99.0272 96° East 227 261 13,600 780 Climbing Minneapolis Center
01:47PM 40.7736 -98.9389 95° East 235 270 14,400 720 Climbing Minneapolis Center
01:48PM 40.7656 -98.8303 96° East 246 283 15,200 780 Climbing Minneapolis Center
01:49PM 40.7611 -98.7183 93° East 254 292 16,200 900 Climbing Minneapolis Center
01:50PM 40.7558 -98.6292 94° East 250 288 17,300 960 Climbing Minneapolis Center
01:51PM 40.7497 -98.5422 95° East 242 278 18,200 960 Climbing Minneapolis Center
01:52PM 40.7417 -98.4556 97° East 240 276 19,300 1,020 Climbing Minneapolis Center
01:53PM 40.7306 -98.3678 99° East 242 278 20,400 720 Climbing Minneapolis Center
01:54PM 40.7228 -98.2544 95° East 255 293 20,900 240 Climbing Minneapolis Center
01:55PM 40.7186 -98.1497 93° East 278 320 21,000  Climbing Minneapolis Center
01:56PM 40.7150 -98.0433 93° East 289 333 21,000  Level Minneapolis Center
01:57PM 40.7117 -97.9397 92° East 287 330 21,000  Level Minneapolis Center
01:58PM 40.7075 -97.8358 93° East 286 329 21,000 -60 Level Minneapolis Center
01:59PM 40.7050 -97.7317 92° East 284 327 20,900  Descending Minneapolis Center
02:00PM 40.7022 -97.6083 92° East 283 326 21,000  Climbing Minneapolis Center
02:01PM 40.6994 -97.5053 92° East 282 325 21,000  Level Minneapolis Center
02:02PM 40.6972 -97.4047 92° East 278 320 21,000  Level Minneapolis Center
02:03PM 40.6944 -97.2986 92° East 280 322 21,000  Level Minneapolis Center
02:04PM 40.6914 -97.1950 92° East 283 326 21,000  Level Minneapolis Center
02:05PM 40.6908 -97.0953 90° East 276 318 21,000  Level Minneapolis Center
02:07PM 40.6883 -96.9956 92° East 273 314 21,000  Level Minneapolis Center
02:08PM 40.6869 -96.8753 91° East 275 316 21,000  Level Minneapolis Center
02:09PM 40.6842 -96.7758 92° East 273 314 21,000  Level Minneapolis Center
02:10PM 40.6817 -96.6736 92° East 278 320 21,000  Level Minneapolis Center
02:11PM 40.6800 -96.5747 91° East 273 314 21,000  Level Minneapolis Center
02:12PM 40.6775 -96.4736 92° East 276 318 21,000  Level Minneapolis Center
02:13PM 40.6747 -96.3528 92° East 277 319 21,000  Level Minneapolis Center
02:14PM 40.6711 -96.2511 93° East 278 320 21,000  Level Minneapolis Center
02:15PM 40.6675 -96.1497 93° East 279 321 21,000  Level Minneapolis Center
02:16PM 40.6639 -96.0497 93° East 277 319 21,000  Level Minneapolis Center
02:17PM 40.6619 -95.9483 91° East 277 319 21,000  Level Minneapolis Center
02:18PM 40.6606 -95.8272 91° East 277 319 21,000  Level Minneapolis Center
02:19PM 40.6600 -95.7264 90° East 277 319 21,000  Level Minneapolis Center
02:20PM 40.6586 -95.6250 91° East 278 320 21,000  Level Minneapolis Center
02:21PM 40.6544 -95.5222 93° East 280 322 21,000  Level Minneapolis Center
02:22PM 40.6497 -95.4222 94° East 277 319 21,000  Level Minneapolis Center
02:23PM 40.6444 -95.3208 94° East 278 320 21,000  Level Minneapolis Center
02:24PM 40.6353 -95.2000 96° East 277 319 21,000  Level Minneapolis Center
02:25PM 40.6236 -95.1000 99° East 278 320 21,000  Level Minneapolis Center
02:26PM 40.6089 -95.0006 101° East 278 320 21,000  Level Minneapolis Center
02:27PM 40.6014 -94.8994 96° East 278 320 21,000  Level Minneapolis Center
02:28PM 40.6050 -94.7969 87° East 279 321 21,000  Level Minneapolis Center
02:29PM 40.5942 -94.6953 98° East 280 322 21,000  Level Minneapolis Center
02:30PM 40.5925 -94.5742 91° East 277 319 21,000  Level Minneapolis Center
02:31PM 40.5883 -94.4861 94° East 281 323 21,000  Level Minneapolis Center
02:32PM 40.5750 -94.3664 98° East 279 321 21,000  Level Minneapolis Center
02:33PM 40.5678 -94.2647 95° East 280 322 21,000  Level Minneapolis Center
02:34PM 40.5656 -94.1631 92° East 279 321 21,000  Level Minneapolis Center
02:35PM 40.5592 -94.0614 95° East 280 322 21,000  Level Minneapolis Center
02:37PM 40.5500 -93.9600 97° East 282 325 21,000  Level Minneapolis Center
02:38PM 40.5414 -93.8389 95° East 279 321 21,000  Level Minneapolis Center
02:39PM 40.5367 -93.7364 93° East 281 323 21,000  Level Minneapolis Center
02:40PM 40.5300 -93.6344 95° East 282 325 21,000  Level Minneapolis Center
02:40PM 40.5233 -93.5731 98° East 282 325 21,000  Level Kansas City Center
02:41PM 40.5142 -93.4708 97° East 284 327 21,000  Level Kansas City Center
02:42PM 40.5083 -93.3669 94° East 286 329 21,000  Level Kansas City Center
02:43PM 40.5025 -93.2417 93° East 288 331 21,000  Level Kansas City Center
02:44PM 40.4944 -93.1381 96° East 287 330 21,000  Level Kansas City Center
02:45PM 40.4781 -93.0278 101° East 292 336 21,000  Level Kansas City Center
02:46PM 40.4817 -92.9267 87° East 290 334 21,000  Level Kansas City Center
02:47PM 40.4703 -92.8086 97° East 290 334 21,000  Level Kansas City Center
02:49PM 40.4564 -92.7086 100° East 291 335 21,000  Level Kansas City Center
02:50PM 40.4519 -92.5908 93° East 297 342 21,000  Level Kansas City Center
02:51PM 40.4478 -92.4853 93° East 294 338 21,000  Level Kansas City Center
02:52PM 40.4325 -92.3808 101° East 292 336 21,000  Level Kansas City Center
02:52PM 40.4294 -92.3147 93° East 293 337 21,000  Level Chicago Center
02:53PM 40.4292 -92.2711 90° East 293 337 21,000  Level Kansas City Center
02:54PM 40.4194 -92.1661 97° East 293 337 21,000  Level Kansas City Center
02:54PM 40.4089 -92.0822 99° East 294 338 21,000  Level Chicago Center
02:55PM 40.4050 -91.9764 93° East 293 337 21,000  Level Chicago Center
02:56PM 40.3947 -91.8719 97° East 292 336 21,000  Level Chicago Center
02:57PM 40.3894 -91.8294 99° East 292 336 21,000  Level Kansas City Center
02:58PM 40.3808 -91.7239 96° East 293 337 21,000  Level Kansas City Center
02:59PM 40.3747 -91.6183 94° East 293 337 21,000  Level Kansas City Center
03:00PM 40.3622 -91.5125 99° East 294 338 21,000  Level Kansas City Center
03:01PM 40.3569 -91.4058 94° East 296 341 21,000  Level Kansas City Center
03:02PM 40.3444 -91.2767 97° East 293 337 21,000  Level Kansas City Center
03:03PM 40.3339 -91.1706 97° East 294 338 21,000  Level Kansas City Center
03:04PM 40.3281 -91.0636 94° East 294 338 21,000  Level Kansas City Center
03:05PM 40.3153 -90.9594 99° East 292 336 21,000  Level Kansas City Center
03:06PM 40.3100 -90.8739 95° East 295 339 21,000  Level Chicago Center
03:07PM 40.2981 -90.7667 98° East 298 343 21,000  Level Chicago Center
03:08PM 40.2856 -90.6603 99° East 296 341 21,000  Level Chicago Center
03:08PM 40.2853 -90.6167 90° East 296 341 21,000  Level Kansas City Center
03:09PM 40.2744 -90.5086 97° East 300 345 21,000  Level Kansas City Center
03:10PM 40.2608 -90.4025 100° East 298 343 21,000  Level Kansas City Center
03:11PM 40.2564 -90.2950 93° East 298 343 21,000  Level Kansas City Center
03:12PM 40.2419 -90.1889 100° East 297 342 21,000  Level Kansas City Center
03:13PM 40.2333 -90.0811 96° East 298 343 21,000  Level Kansas City Center
03:14PM 40.2206 -89.9544 97° East 296 341 21,000  Level Kansas City Center
03:15PM 40.2061 -89.8483 100° East 297 342 21,000  Level Kansas City Center
03:16PM 40.2025 -89.7842 94° East 298 343 21,000  Level Chicago Center
03:17PM 40.1900 -89.6558 97° East 299 344 21,000  Level Chicago Center
03:18PM 40.1714 -89.5308 101° East 297 342 21,000  Level Kansas City Center
03:20PM 40.1639 -89.4228 95° East 297 342 21,000  Level Kansas City Center
03:20PM 40.1581 -89.3364 95° East 298 343 21,000  Level Chicago Center
03:21PM 40.1536 -89.2283 93° East 299 344 21,000  Level Chicago Center
03:22PM 40.1419 -89.1208 98° East 300 345 21,000  Level Chicago Center
03:23PM 40.1125 -88.9983 107° East 298 343 21,000  Level Chicago Center
03:24PM 40.1072 -88.8894 94° East 304 350 21,000  Level Chicago Center
03:25PM 40.0858 -88.7883 105° East 294 338 21,000  Level Chicago Center
03:26PM 40.0775 -88.6803 96° East 297 342 21,000  Level Chicago Center
03:27PM 40.0744 -88.5725 92° East 299 344 21,000  Level Chicago Center
03:28PM 40.0611 -88.4661 99° East 300 345 21,000  Level Chicago Center
03:30PM 40.0419 -88.3400 101° East 297 342 21,000  Level Chicago Center
03:31PM 40.0333 -88.2325 96° East 300 345 21,000  Level Chicago Center
03:32PM 40.0256 -88.1222 95° East 297 342 21,000  Level Chicago Center
03:33PM 40.0169 -88.0150 96° East 298 343 21,000  Level Chicago Center
03:34PM 40.0083 -87.9078 96° East 299 344 21,000  Level Chicago Center
03:35PM 39.9972 -87.8008 98° East 299 344 21,000 -60 Level Chicago Center
03:36PM 39.9772 -87.6750 102° East 295 339 20,900  Descending Indianapolis Center
03:37PM 39.9594 -87.5711 103° East 295 339 21,000  Climbing Indianapolis Center
03:38PM 39.9372 -87.4692 106° East 294 338 21,000  Level Indianapolis Center
03:39PM 39.9125 -87.3683 108° East 293 337 21,000  Level Indianapolis Center
03:40PM 39.8789 -87.2511 110° East 291 335 21,000  Level Indianapolis Center
03:41PM 39.8489 -87.1531 112° Southeast 292 336 21,000 -60 Level Indianapolis Center
03:42PM 39.8286 -87.0514 105° East 292 336 20,900  Descending Indianapolis Center
03:43PM 39.8117 -86.9472 102° East 293 337 21,000  Climbing Indianapolis Center
03:44PM 39.7944 -86.8447 102° East 292 336 20,900 -60 Descending Indianapolis Center
03:45PM 39.7778 -86.7403 102° East 294 338 20,900  Level Indianapolis Center
03:46PM 39.7611 -86.6381 102° East 292 336 21,000  Climbing Indianapolis Center
03:47PM 39.7442 -86.5150 100° East 290 334 21,000 -60 Level Indianapolis Center
03:48PM 39.7306 -86.4114 100° East 292 336 20,900 -60 Descending Indianapolis Center
03:49PM 39.6911 -86.3267 121° Southeast 289 333 20,900  Level Indianapolis Center
03:50PM 39.6531 -86.2386 119° Southeast 289 333 21,000  Climbing Indianapolis Center
03:51PM 39.6075 -86.1317 119° Southeast 286 329 20,900 -60 Descending Indianapolis Center
03:52PM 39.5683 -86.0431 120° Southeast 284 327 20,900  Level Indianapolis Center
03:53PM 39.5275 -85.9550 121° Southeast 287 330 21,000  Climbing Indianapolis Center
03:54PM 39.4867 -85.8661 121° Southeast 288 331 20,900  Descending Indianapolis Center
03:55PM 39.4469 -85.7756 120° Southeast 289 333 21,000  Climbing Indianapolis Center
03:56PM 39.4089 -85.6839 118° Southeast 290 334 21,000  Level Indianapolis Center
03:57PM 39.3575 -85.5797 123° Southeast 287 330 21,000  Level Indianapolis Center
03:58PM 39.3183 -85.4925 120° Southeast 284 327 21,000  Level Indianapolis Center
03:59PM 39.2794 -85.4061 120° Southeast 280 322 21,000  Level Indianapolis Center
04:01PM 39.2536 -85.3119 109° East 281 323 21,000  Level Indianapolis Center
04:02PM 39.2108 -85.2328 125° Southeast 275 316 21,000  Level Indianapolis Center
04:03PM 39.1656 -85.1553 127° Southeast 272 313 21,000  Level Indianapolis Center
04:04PM 39.1242 -85.0747 123° Southeast 274 315 21,000  Level Indianapolis Center
04:05PM 39.0842 -84.9708 116° Southeast 269 310 21,000  Level Indianapolis Center
04:06PM 39.0517 -84.8831 115° Southeast 271 312 21,000 -60 Level Indianapolis Center
04:07PM 39.0072 -84.8139 130° Southeast 265 305 20,900  Descending Indianapolis Center
04:08PM 38.9517 -84.7508 139° Southeast 264 304 21,000  Climbing Indianapolis Center
04:09PM 38.9008 -84.6847 135° Southeast 259 298 21,000  Level Indianapolis Center
04:10PM 38.8664 -84.6003 118° Southeast 267 307 21,000 -60 Level Indianapolis Center
04:11PM 38.8306 -84.4997 115° Southeast 266 306 20,900  Descending Indianapolis Center
04:12PM 38.8064 -84.4072 109° East 270 311 21,000  Climbing Indianapolis Center
04:13PM 38.7717 -84.3217 117° Southeast 269 310 21,000  Level Indianapolis Center
04:14PM 38.7317 -84.2383 122° Southeast 272 313 21,000  Level Indianapolis Center
04:15PM 38.6994 -84.1447 114° Southeast 283 326 21,000 -60 Level Indianapolis Center
04:16PM 38.6667 -84.0519 114° Southeast 284 327 20,900 -60 Descending Indianapolis Center
04:17PM 38.6333 -83.9503 113° Southeast 286 329 20,900  Level Indianapolis Center
04:18PM 38.6172 -83.8467 101° East 294 338 20,900  Level Indianapolis Center
04:19PM 38.5856 -83.7539 114° Southeast 286 329 20,900  Level Indianapolis Center
04:20PM 38.5400 -83.6514 120° Southeast 283 326 20,900  Level Indianapolis Center
04:21PM 38.5000 -83.5667 121° Southeast 280 322 20,900  Level Indianapolis Center
04:22PM 38.4667 -83.4744 115° Southeast 284 327 21,000  Climbing Indianapolis Center
04:23PM 38.4261 -83.3906 122° Southeast 280 322 20,900  Descending Indianapolis Center
04:24PM 38.3925 -83.2989 115° Southeast 284 327 21,000  Climbing Indianapolis Center
04:25PM 38.3514 -83.2183 123° Southeast 274 315 21,000  Level Indianapolis Center
04:26PM 38.3153 -83.1156 114° Southeast 271 312 21,000  Level Indianapolis Center
04:27PM 38.2764 -83.0375 122° Southeast 262 302 21,000  Level Indianapolis Center
04:28PM 38.2411 -82.9539 118° Southeast 267 307 21,000  Level Indianapolis Center
04:29PM 38.2153 -82.8644 110° East 268 308 21,000  Level Indianapolis Center
04:30PM 38.1858 -82.7786 114° Southeast 266 306 21,000  Level Indianapolis Center
04:31PM 38.1525 -82.6922 116° Southeast 271 312 21,000  Level Indianapolis Center
04:32PM 38.1203 -82.6058 115° Southeast 271 312 21,000  Level Indianapolis Center
04:33PM 38.0764 -82.5086 120° Southeast 271 312 21,000  Level Indianapolis Center
04:35PM 38.0372 -82.4283 122° Southeast 268 308 21,000  Level Indianapolis Center
04:36PM 38.0094 -82.3378 111° Southeast 272 313 21,000 -60 Level Indianapolis Center
04:37PM 37.9761 -82.2481 115° Southeast 277 319 20,900 -60 Descending Indianapolis Center
04:38PM 37.9364 -82.1525 118° Southeast 278 320 20,900  Level Indianapolis Center
04:39PM 37.9056 -82.0617 113° Southeast 281 323 21,000  Climbing Indianapolis Center
04:40PM 37.8706 -81.9747 117° Southeast 280 322 21,000 -60 Level Indianapolis Center
04:41PM 37.8325 -81.8792 117° Southeast 280 322 20,900 -60 Descending Indianapolis Center
04:42PM 37.7911 -81.7922 121° Southeast 284 327 20,900  Level Indianapolis Center
04:43PM 37.7567 -81.7039 116° Southeast 280 322 20,900  Level Indianapolis Center
04:44PM 37.7281 -81.6117 111° Southeast 282 325 20,900  Level Indianapolis Center
04:45PM 37.6922 -81.5244 117° Southeast 277 319 20,900  Level Indianapolis Center
04:46PM 37.6617 -81.4233 111° Southeast 281 323 20,900  Level Indianapolis Center
04:47PM 37.6275 -81.3328 115° Southeast 286 329 20,900  Level Indianapolis Center
04:48PM 37.5956 -81.2439 114° Southeast 280 322 20,900  Level Indianapolis Center
04:49PM 37.5528 -81.1500 120° Southeast 283 326 20,900  Level Indianapolis Center
04:50PM 37.5211 -81.0611 114° Southeast 277 319 21,000  Climbing Indianapolis Center
04:51PM 37.4853 -80.9739 117° Southeast 279 321 21,000 -120 Level Indianapolis Center
04:52PM 37.4461 -80.8892 120° Southeast 279 321 20,800 -60 Descending Indianapolis Center
04:53PM 37.4136 -80.8003 115° Southeast 280 322 20,900 60 Climbing Indianapolis Center
04:54PM 37.3822 -80.7106 114° Southeast 280 322 21,000  Climbing Indianapolis Center
04:55PM 37.3386 -80.6086 118° Southeast 282 325 21,000 -60 Level Indianapolis Center
04:56PM 37.3061 -80.5294 117° Southeast 278 320 20,900  Descending Washington Center
04:57PM 37.2761 -80.4467 114° Southeast 278 320 21,000  Climbing Washington Center
04:58PM 37.2444 -80.3508 113° Southeast 278 320 21,000  Level Washington Center
04:59PM 37.2061 -80.2622 118° Southeast 278 320 21,000 -60 Level Washington Center
05:00PM 37.1736 -80.1847 118° Southeast 283 326 20,900 -300 Descending Washington Center
05:01PM 37.1339 -80.0808 116° Southeast 288 331 20,400 -1,020 Descending Washington Center
05:02PM 37.0997 -79.9928 116° Southeast 301 346 18,900 -1,560 Descending Washington Center
05:03PM 37.0619 -79.8786 112° Southeast 314 361 17,400 -1,500 Descending Washington Center
05:04PM 37.0261 -79.7753 113° Southeast 319 367 16,000 -1,380 Descending Washington Center
05:05PM 36.9917 -79.6850 116° Southeast 319 367 14,600 -1,500 Descending Washington Center
05:06PM 36.9578 -79.5739 111° Southeast 319 367 13,100 -1,440 Descending Washington Center
05:07PM 36.9233 -79.4786 114° Southeast 302 348 11,800 -1,020 Descending Washington Center
05:08PM 36.8886 -79.3911 116° Southeast 290 334 11,100 -660 Descending Washington Center
05:09PM 36.8600 -79.3042 112° Southeast 274 315 10,500 -960 Descending Washington Center
05:10PM 36.8272 -79.2142 114° Southeast 274 315 9,200 -1,380 Descending Washington Center
05:11PM 36.7944 -79.1244 115° Southeast 281 323 7,800 -1,440 Descending Washington Center